Time;durP1;ratioP1;P1;durP2;ratioP2;P2;SDS_P1;SDS_P2;PMS_P1;PMS_P2;Temp;Humidity;BMP_temperature;BMP_pressure;BME280_temperature;BME280_humidity;BME280_pressure;Samples;Min_cycle;Max_cycle;Signal;HPM_P1;HPM_P2
2023/08/24 00:00:59;;;;;;;5.25;4.35;;;29.40;51.50;;;;;;5050401;28;20033;-68
2023/08/24 00:03:25;;;;;;;8.07;3.90;;;29.50;51.50;;;;;;5050497;28;20048;-68
2023/08/24 00:05:51;;;;;;;7.22;4.15;;;29.60;51.50;;;;;;5048295;28;20055;-68
2023/08/24 00:08:17;;;;;;;5.47;4.38;;;29.40;51.60;;;;;;5049335;28;20123;-68
2023/08/24 00:10:47;;;;;;;4.88;4.28;;;29.40;51.60;;;;;;5052238;28;20132;-68
2023/08/24 00:13:13;;;;;;;5.40;3.88;;;29.60;51.60;;;;;;5054080;28;20396;-68
2023/08/24 00:15:40;;;;;;;4.43;4.03;;;29.40;51.60;;;;;;5053984;28;20045;-67
2023/08/24 00:18:06;;;;;;;5.47;4.18;;;29.40;51.60;;;;;;5068605;28;20056;-68
2023/08/24 00:20:33;;;;;;;4.85;4.07;;;29.40;51.60;;;;;;5053748;28;20037;-68
2023/08/24 00:22:59;;;;;;;5.68;4.50;;;29.40;51.60;;;;;;5052599;28;20033;-68
2023/08/24 00:25:26;;;;;;;5.78;4.57;;;29.20;51.60;;;;;;5054145;28;20063;-68
2023/08/24 00:27:53;;;;;;;4.47;3.67;;;29.30;51.60;;;;;;5054004;28;20052;-68
2023/08/24 00:30:20;;;;;;;5.50;4.30;;;29.40;51.60;;;;;;5053776;28;20071;-68
2023/08/24 00:32:46;;;;;;;4.68;3.95;;;29.40;51.60;;;;;;5052523;28;20045;-68
2023/08/24 00:35:12;;;;;;;5.43;4.60;;;29.40;51.60;;;;;;5052508;28;20033;-69
2023/08/24 00:37:39;;;;;;;5.47;4.28;;;29.40;51.70;;;;;;5052403;28;20477;-68
2023/08/24 00:40:09;;;;;;;6.85;4.53;;;29.30;51.70;;;;;;5052302;28;20033;-67
2023/08/24 00:42:40;;;;;;;5.53;4.28;;;29.40;51.70;;;;;;5058297;28;20089;-68
2023/08/24 00:45:09;;;;;;;6.65;3.88;;;29.30;51.80;;;;;;5073655;28;20072;-68
2023/08/24 00:47:39;;;;;;;5.97;5.10;;;29.40;51.80;;;;;;5072222;28;20052;-68
2023/08/24 00:50:06;;;;;;;5.43;4.57;;;29.40;51.80;;;;;;5073697;28;20435;-68
2023/08/24 00:52:33;;;;;;;6.65;4.57;;;29.30;51.80;;;;;;5072261;28;20495;-68
2023/08/24 00:54:59;;;;;;;5.25;4.55;;;29.40;51.90;;;;;;5073442;28;20025;-68
2023/08/24 00:57:29;;;;;;;4.70;4.30;;;29.30;51.90;;;;;;5072159;28;20044;-68
2023/08/24 00:59:57;;;;;;;4.88;4.20;;;29.40;51.90;;;;;;5072946;28;20079;-67
2023/08/24 01:02:23;;;;;;;4.95;3.72;;;29.40;51.90;;;;;;5073270;28;20182;-68
2023/08/24 01:04:53;;;;;;;5.07;3.78;;;29.40;51.90;;;;;;5073323;28;20043;-68
2023/08/24 01:07:20;;;;;;;5.20;4.30;;;29.40;52.00;;;;;;5073097;28;20032;-68
2023/08/24 01:09:47;;;;;;;5.38;3.90;;;29.40;52.00;;;;;;5072854;28;20024;-68
2023/08/24 01:12:41;;;;;;;4.95;4.07;;;29.40;52.00;;;;;;5072875;28;20055;-68
2023/08/24 01:15:25;;;;;;;4.28;3.88;;;29.40;52.00;;;;;;5072842;28;20181;-68
2023/08/24 01:17:55;;;;;;;4.40;4.00;;;29.30;52.00;;;;;;5072847;28;20120;-68
2023/08/24 01:20:22;;;;;;;4.43;3.22;;;29.40;52.00;;;;;;5072513;28;20594;-68
2023/08/24 01:23:13;;;;;;;5.07;4.10;;;29.40;52.00;;;;;;5071940;28;20039;-68
2023/08/24 01:25:46;;;;;;;4.68;3.55;;;29.40;52.00;;;;;;5072535;28;20090;-68
2023/08/24 01:28:14;;;;;;;5.90;3.95;;;29.30;52.00;;;;;;5071325;28;20051;-66
2023/08/24 01:30:40;;;;;;;4.72;4.03;;;29.30;52.00;;;;;;5071272;28;20028;-68
2023/08/24 01:33:11;;;;;;;3.97;3.47;;;29.30;52.00;;;;;;5069940;28;20127;-68
2023/08/24 01:35:38;;;;;;;4.03;3.63;;;29.40;52.00;;;;;;5064418;28;20106;-68
2023/08/24 01:38:06;;;;;;;4.80;4.07;;;29.40;52.00;;;;;;5050016;28;20080;-68
2023/08/24 01:40:34;;;;;;;6.13;4.18;;;29.30;52.00;;;;;;5049865;28;20091;-67
2023/08/24 01:43:07;;;;;;;4.45;3.65;;;29.20;52.10;;;;;;5033344;28;20144;-68
2023/08/24 01:45:33;;;;;;;4.47;3.80;;;29.20;52.10;;;;;;5033456;28;20116;-68
2023/08/24 01:48:02;;;;;;;5.65;3.85;;;29.30;52.00;;;;;;5033101;28;20085;-68
2023/08/24 01:50:30;;;;;;;4.68;3.97;;;29.30;52.20;;;;;;5049859;28;20087;-68
2023/08/24 01:52:57;;;;;;;4.70;3.75;;;29.20;52.20;;;;;;5049864;28;20041;-68
2023/08/24 01:55:25;;;;;;;6.85;3.60;;;29.20;52.20;;;;;;5049557;28;20051;-68
2023/08/24 01:57:51;;;;;;;3.75;3.45;;;29.20;52.20;;;;;;5033268;28;20070;-68
2023/08/24 02:00:17;;;;;;;5.90;3.92;;;29.20;52.20;;;;;;5032885;28;20480;-68
2023/08/24 02:02:47;;;;;;;4.50;3.88;;;29.30;52.20;;;;;;5049674;28;20036;-68
2023/08/24 02:05:13;;;;;;;4.63;3.95;;;29.40;52.30;;;;;;5049689;28;20045;-68
2023/08/24 02:07:42;;;;;;;6.03;3.85;;;29.30;52.30;;;;;;5051814;28;20439;-68
2023/08/24 02:10:08;;;;;;;6.15;4.10;;;29.30;52.30;;;;;;5051630;28;20492;-67
2023/08/24 02:12:35;;;;;;;4.25;3.80;;;29.20;52.30;;;;;;5050516;28;20491;-68
2023/08/24 02:15:01;;;;;;;8.07;4.00;;;29.40;52.30;;;;;;5051879;28;20058;-68
2023/08/24 02:17:27;;;;;;;3.97;3.58;;;29.40;52.30;;;;;;5050566;28;20489;-68
2023/08/24 02:19:53;;;;;;;4.80;3.40;;;29.40;52.40;;;;;;5050246;28;20037;-68
2023/08/24 02:22:19;;;;;;;5.35;4.32;;;29.30;52.40;;;;;;5051700;28;20503;-68
2023/08/24 02:24:45;;;;;;;5.70;3.97;;;29.40;52.40;;;;;;5051621;28;20124;-68
2023/08/24 02:27:11;;;;;;;4.63;3.85;;;29.20;52.40;;;;;;5050153;28;20028;-68
2023/08/24 02:29:38;;;;;;;3.83;3.35;;;29.30;52.30;;;;;;5050343;28;20044;-68
2023/08/24 02:32:06;;;;;;;5.88;3.45;;;29.30;52.30;;;;;;5050189;28;20041;-67
2023/08/24 02:34:32;;;;;;;4.68;3.53;;;29.30;52.40;;;;;;5051384;28;20462;-68
2023/08/24 02:36:58;;;;;;;4.32;3.35;;;29.30;52.30;;;;;;5051484;28;20037;-68
2023/08/24 02:39:25;;;;;;;4.40;3.78;;;29.30;52.30;;;;;;5060868;28;20392;-68
2023/08/24 02:41:51;;;;;;;4.63;3.53;;;29.40;52.30;;;;;;5071135;28;20170;-66
2023/08/24 02:44:17;;;;;;;5.57;4.10;;;29.40;52.40;;;;;;5071451;28;20863;-68
2023/08/24 02:46:47;;;;;;;4.20;3.55;;;29.30;52.40;;;;;;5071385;28;20056;-68
2023/08/24 02:49:14;;;;;;;4.38;3.70;;;29.30;52.40;;;;;;5069972;28;20033;-68
2023/08/24 02:51:40;;;;;;;4.53;3.88;;;29.20;52.40;;;;;;5071110;28;20032;-68
2023/08/24 02:54:06;;;;;;;4.45;3.60;;;29.20;52.50;;;;;;5070866;28;20045;-68
2023/08/24 02:56:32;;;;;;;5.50;4.40;;;29.10;52.30;;;;;;5068946;28;20054;-68
2023/08/24 02:58:59;;;;;;;4.45;4.05;;;29.20;52.50;;;;;;5068401;28;20067;-68
2023/08/24 03:01:26;;;;;;;6.43;3.83;;;29.30;52.50;;;;;;5068569;28;20036;-68
2023/08/24 03:03:52;;;;;;;4.35;3.78;;;29.20;52.50;;;;;;5068454;28;20048;-66
2023/08/24 03:06:18;;;;;;;3.83;3.17;;;29.20;52.50;;;;;;5052096;28;20512;-68
2023/08/24 03:08:44;;;;;;;5.13;4.07;;;29.30;52.50;;;;;;5051799;28;20482;-68
2023/08/24 03:11:11;;;;;;;4.65;3.47;;;29.20;52.50;;;;;;5051567;28;20127;-68
2023/08/24 03:13:38;;;;;;;6.85;4.00;;;29.20;52.50;;;;;;5068702;28;20182;-67
2023/08/24 03:16:06;;;;;;;6.05;3.17;;;29.20;52.60;;;;;;5068425;28;20068;-68
2023/08/24 03:18:32;;;;;;;3.72;3.33;;;29.30;52.60;;;;;;5068559;28;20045;-68
2023/08/24 03:20:59;;;;;;;3.92;3.53;;;29.30;52.60;;;;;;5068465;28;20040;-68
2023/08/24 03:23:25;;;;;;;4.80;3.88;;;29.30;52.60;;;;;;5068467;28;20056;-67
2023/08/24 03:25:51;;;;;;;4.72;3.65;;;29.30;52.60;;;;;;5068370;28;20606;-68
2023/08/24 03:28:17;;;;;;;3.95;3.42;;;29.30;52.60;;;;;;5068545;28;20040;-68
2023/08/24 03:30:51;;;;;;;4.07;3.65;;;29.30;52.70;;;;;;5051262;28;20203;-68
2023/08/24 03:33:17;;;;;;;4.93;3.28;;;29.40;52.60;;;;;;5051768;28;20127;-68
2023/08/24 03:35:43;;;;;;;3.78;3.40;;;29.40;52.70;;;;;;5052800;28;20076;-68
2023/08/24 03:38:10;;;;;;;5.50;4.05;;;29.30;52.60;;;;;;5069338;28;20114;-67
2023/08/24 03:40:36;;;;;;;4.18;3.83;;;29.30;52.60;;;;;;5069511;28;20446;-68
2023/08/24 03:43:03;;;;;;;5.15;3.55;;;29.40;52.60;;;;;;5069392;28;20036;-68
2023/08/24 03:45:29;;;;;;;5.47;3.83;;;29.30;52.60;;;;;;5056377;28;20037;-68
2023/08/24 03:47:56;;;;;;;4.63;4.07;;;29.30;52.60;;;;;;5054589;28;20056;-68
2023/08/24 03:50:22;;;;;;;5.10;3.72;;;29.30;52.60;;;;;;5053371;28;20057;-68
2023/08/24 03:52:54;;;;;;;7.13;3.50;;;29.40;52.60;;;;;;5053103;28;20033;-67
2023/08/24 03:55:20;;;;;;;5.73;3.97;;;29.40;52.70;;;;;;5054480;28;20044;-67
2023/08/24 03:57:46;;;;;;;4.68;4.07;;;29.10;52.30;;;;;;5052937;28;20752;-67
2023/08/24 04:00:14;;;;;;;4.15;3.75;;;29.30;52.50;;;;;;5052153;28;20389;-68
2023/08/24 04:02:41;;;;;;;5.43;4.28;;;29.20;52.50;;;;;;5036533;28;20025;-68
2023/08/24 04:05:09;;;;;;;8.45;5.15;;;29.10;52.20;;;;;;5053027;28;20507;-68
2023/08/24 04:07:39;;;;;;;7.28;4.97;;;29.10;52.40;;;;;;5054140;28;20175;-67
2023/08/24 04:10:06;;;;;;;10.10;5.25;;;29.10;52.30;;;;;;5068533;28;20057;-68
2023/08/24 04:12:32;;;;;;;6.80;4.95;;;29.10;52.20;;;;;;5054183;28;20396;-66
2023/08/24 04:14:58;;;;;;;10.18;5.30;;;29.20;53.70;;;;;;5053981;28;20036;-66
2023/08/24 04:17:25;;;;;;;6.72;5.05;;;29.40;55.60;;;;;;5052698;28;20037;-67
2023/08/24 04:19:52;;;;;;;8.57;4.80;;;30.00;61.00;;;;;;5052630;28;20037;-66
2023/08/24 04:22:19;;;;;;;8.30;4.53;;;30.00;59.80;;;;;;5036103;28;20033;-67
2023/08/24 04:24:45;;;;;;;7.45;5.50;;;30.10;55.50;;;;;;5053867;28;20029;-67
2023/08/24 04:27:11;;;;;;;8.02;5.60;;;29.80;53.60;;;;;;5053825;28;20067;-65
2023/08/24 04:29:37;;;;;;;8.88;4.80;;;29.70;53.30;;;;;;5053712;28;20037;-66
2023/08/24 04:32:04;;;;;;;9.35;5.03;;;29.70;53.20;;;;;;5054511;28;20126;-66
2023/08/24 04:34:30;;;;;;;6.25;4.40;;;29.60;53.30;;;;;;5052231;28;20037;-67
2023/08/24 04:36:56;;;;;;;5.47;4.53;;;29.60;53.30;;;;;;5053862;28;20492;-65
2023/08/24 04:39:22;;;;;;;8.93;5.45;;;29.60;53.40;;;;;;5053640;28;20130;-67
2023/08/24 04:41:48;;;;;;;5.72;4.85;;;29.70;53.50;;;;;;5053456;28;20075;-67
2023/08/24 04:44:14;;;;;;;5.55;4.90;;;29.50;53.60;;;;;;5053606;28;20041;-67
2023/08/24 04:46:40;;;;;;;8.10;5.30;;;29.70;53.70;;;;;;5052080;28;20091;-66
2023/08/24 04:49:06;;;;;;;6.07;4.65;;;29.70;53.90;;;;;;5053460;28;20040;-67
2023/08/24 04:51:32;;;;;;;7.20;5.38;;;29.60;54.00;;;;;;5053418;28;20198;-66
2023/08/24 04:53:58;;;;;;;8.90;5.65;;;29.60;54.20;;;;;;5053402;28;20032;-67
2023/08/24 04:56:24;;;;;;;8.85;5.32;;;29.60;54.30;;;;;;5052361;28;20385;-68
2023/08/24 04:58:57;;;;;;;8.20;5.13;;;29.50;54.40;;;;;;5051908;28;20094;-68
2023/08/24 05:01:27;;;;;;;8.23;6.30;;;29.50;54.40;;;;;;5053128;28;20497;-68
2023/08/24 05:03:54;;;;;;;8.38;6.25;;;29.60;54.00;;;;;;5053227;28;20037;-68
2023/08/24 05:06:20;;;;;;;9.65;5.57;;;29.50;53.90;;;;;;5053409;28;20037;-66
2023/08/24 05:08:47;;;;;;;9.38;6.90;;;29.50;53.70;;;;;;5050815;28;20051;-67
2023/08/24 05:11:14;;;;;;;7.63;6.60;;;29.50;54.40;;;;;;5053084;28;20710;-65
2023/08/24 05:13:43;;;;;;;10.80;6.32;;;29.50;54.40;;;;;;5050883;28;20500;-66
2023/08/24 05:16:10;;;;;;;10.90;6.85;;;29.50;54.40;;;;;;5052910;28;20040;-67
2023/08/24 05:18:36;;;;;;;8.82;7.22;;;29.50;54.50;;;;;;5053057;28;20072;-67
2023/08/24 05:21:03;;;;;;;9.98;6.70;;;29.60;55.00;;;;;;5052872;28;20049;-67
2023/08/24 05:23:30;;;;;;;10.98;7.80;;;29.60;55.10;;;;;;5053136;28;20035;-66
2023/08/24 05:26:00;;;;;;;11.73;7.55;;;29.60;56.10;;;;;;5052786;28;20028;-67
2023/08/24 05:28:28;;;;;;;11.05;6.55;;;29.60;56.20;;;;;;5052850;28;20034;-66
2023/08/24 05:30:54;;;;;;;11.20;7.53;;;29.60;55.80;;;;;;5051350;28;20044;-67
2023/08/24 05:33:22;;;;;;;10.27;6.78;;;29.70;57.10;;;;;;5052867;28;20025;-67
2023/08/24 05:35:48;;;;;;;11.02;7.93;;;29.50;55.70;;;;;;5052384;28;20558;-67
2023/08/24 05:38:15;;;;;;;11.32;7.35;;;29.60;56.40;;;;;;5052453;28;20045;-67
2023/08/24 05:40:42;;;;;;;8.93;6.65;;;29.70;56.70;;;;;;5052446;28;20032;-65
2023/08/24 05:43:11;;;;;;;9.38;7.00;;;29.70;56.40;;;;;;5052325;28;20044;-67
2023/08/24 05:45:39;;;;;;;10.90;7.55;;;29.70;57.20;;;;;;5052431;28;20033;-66
2023/08/24 05:48:06;;;;;;;14.80;7.43;;;29.70;57.00;;;;;;5051208;28;20057;-65
2023/08/24 05:50:32;;;;;;;10.98;7.15;;;29.70;56.80;;;;;;5033066;28;20033;-67
2023/08/24 05:52:57;;;;;;;11.20;6.25;;;29.70;57.80;;;;;;5052186;28;20032;-67
2023/08/24 05:55:24;;;;;;;9.38;7.38;;;29.60;57.20;;;;;;5052197;28;20033;-66
2023/08/24 05:57:50;;;;;;;7.75;6.78;;;29.80;57.00;;;;;;5052149;28;20047;-68
2023/08/24 06:00:16;;;;;;;7.88;7.00;;;29.80;57.60;;;;;;5052384;28;20044;-68
2023/08/24 06:02:42;;;;;;;9.00;7.28;;;29.80;56.30;;;;;;5052038;28;20115;-67
2023/08/24 06:05:09;;;;;;;8.95;7.03;;;29.70;56.10;;;;;;5052108;28;20076;-66
2023/08/24 06:07:35;;;;;;;10.55;7.22;;;29.70;56.10;;;;;;5051521;28;20049;-66
2023/08/24 06:10:01;;;;;;;9.20;6.82;;;29.60;55.90;;;;;;5052039;28;20041;-66
2023/08/24 06:12:27;;;;;;;10.45;7.05;;;29.70;56.90;;;;;;5051809;28;20029;-67
2023/08/24 06:14:53;;;;;;;8.13;7.03;;;29.80;57.40;;;;;;5051988;28;20039;-66
2023/08/24 06:17:19;;;;;;;10.82;6.85;;;29.80;56.40;;;;;;5051817;28;20037;-67
2023/08/24 06:19:45;;;;;;;9.95;7.30;;;29.90;56.00;;;;;;5051590;28;20028;-67
2023/08/24 06:22:11;;;;;;;9.88;7.05;;;29.80;56.30;;;;;;5051582;28;20118;-68
2023/08/24 06:24:37;;;;;;;10.70;7.60;;;29.80;56.40;;;;;;5054595;28;20493;-67
2023/08/24 06:27:03;;;;;;;11.23;7.72;;;29.70;56.90;;;;;;5086277;28;20036;-68
2023/08/24 06:29:29;;;;;;;10.70;7.40;;;29.60;56.20;;;;;;5052545;28;20078;-68
2023/08/24 06:31:55;;;;;;;13.98;8.18;;;29.50;56.20;;;;;;5070299;28;20040;-68
2023/08/24 06:34:22;;;;;;;10.57;7.78;;;29.50;56.20;;;;;;5067817;28;20047;-68
2023/08/24 06:36:50;;;;;;;10.63;7.35;;;29.40;56.10;;;;;;5058836;28;20148;-68
2023/08/24 06:39:16;;;;;;;12.40;8.93;;;29.30;56.90;;;;;;5058614;28;20108;-68
2023/08/24 06:41:42;;;;;;;10.60;6.90;;;29.40;58.90;;;;;;5071609;28;20064;-68
2023/08/24 06:44:08;;;;;;;10.98;8.35;;;29.20;57.80;;;;;;5058173;28;20067;-68
2023/08/24 06:46:34;;;;;;;9.63;7.35;;;29.40;57.40;;;;;;5082385;28;20049;-69
2023/08/24 06:49:00;;;;;;;8.45;6.65;;;29.10;57.20;;;;;;5051174;28;20079;-68
2023/08/24 06:51:28;;;;;;;9.88;7.45;;;29.20;56.80;;;;;;5051845;28;20044;-68
2023/08/24 06:53:54;;;;;;;10.25;7.30;;;29.20;56.70;;;;;;5071210;28;20074;-68
2023/08/24 06:56:20;;;;;;;10.00;6.32;;;29.20;56.60;;;;;;5071317;28;20040;-68
2023/08/24 06:58:48;;;;;;;9.30;7.55;;;29.30;56.30;;;;;;5071425;28;20074;-68
2023/08/24 07:01:14;;;;;;;9.23;6.45;;;29.10;56.60;;;;;;5071168;28;20074;-68
2023/08/24 07:03:40;;;;;;;13.10;6.88;;;29.10;56.50;;;;;;5070971;28;20037;-68
2023/08/24 07:06:11;;;;;;;10.95;7.20;;;29.30;56.50;;;;;;5071052;28;20387;-69
2023/08/24 07:08:37;;;;;;;8.18;6.40;;;29.30;56.00;;;;;;5066826;28;20032;-69
2023/08/24 07:11:03;;;;;;;7.68;6.43;;;29.30;55.80;;;;;;5051049;28;20040;-69
2023/08/24 07:13:30;;;;;;;9.98;6.70;;;29.30;55.70;;;;;;5050957;28;20083;-68
2023/08/24 07:15:56;;;;;;;6.30;5.70;;;29.30;55.60;;;;;;5050965;28;20025;-69
2023/08/24 07:18:22;;;;;;;6.97;6.07;;;29.50;55.50;;;;;;5051004;28;20048;-69
2023/08/24 07:20:48;;;;;;;9.07;6.20;;;29.40;55.40;;;;;;5050389;28;20531;-68
2023/08/24 07:23:14;;;;;;;8.20;6.40;;;29.50;55.40;;;;;;5048563;28;20098;-69
2023/08/24 07:25:41;;;;;;;6.90;5.72;;;29.40;55.20;;;;;;5051074;28;20140;-68
2023/08/24 07:28:08;;;;;;;9.15;7.00;;;29.50;55.20;;;;;;5049803;28;20029;-69
2023/08/24 07:30:35;;;;;;;10.18;7.00;;;29.50;55.20;;;;;;5049617;28;20075;-68
2023/08/24 07:33:05;;;;;;;9.93;7.20;;;29.50;55.30;;;;;;5050790;28;20116;-69
2023/08/24 07:35:31;;;;;;;6.05;5.07;;;29.70;55.00;;;;;;5050770;28;20495;-69
2023/08/24 07:37:58;;;;;;;7.07;5.90;;;29.60;54.50;;;;;;5050862;28;20373;-70
2023/08/24 07:40:25;;;;;;;7.75;6.05;;;29.50;54.10;;;;;;5050732;28;20108;-69
2023/08/24 07:42:54;;;;;;;8.55;6.05;;;29.70;53.40;;;;;;5053113;28;20744;-70
2023/08/24 07:45:21;;;;;;;9.38;5.70;;;29.60;52.80;;;;;;5070731;28;20029;-70
2023/08/24 07:47:47;;;;;;;6.82;5.65;;;29.50;52.30;;;;;;5054588;28;20053;-69
2023/08/24 07:50:13;;;;;;;6.70;5.03;;;29.50;51.80;;;;;;5050166;28;20499;-70
2023/08/24 07:52:39;;;;;;;5.05;4.55;;;29.70;51.20;;;;;;5050815;28;20033;-70
2023/08/24 07:55:06;;;;;;;7.55;5.13;;;29.60;50.80;;;;;;5050696;28;20131;-70
2023/08/24 07:57:37;;;;;;;6.65;5.43;;;29.50;50.40;;;;;;5050373;28;20493;-69
2023/08/24 08:00:04;;;;;;;6.75;5.50;;;29.60;50.10;;;;;;5049813;28;20037;-71
2023/08/24 08:02:38;;;;;;;6.85;5.18;;;29.60;50.00;;;;;;5050046;28;20052;-69
2023/08/24 08:05:07;;;;;;;6.60;4.97;;;29.60;49.90;;;;;;5049986;28;20044;-69
2023/08/24 08:07:34;;;;;;;8.50;5.97;;;29.50;50.10;;;;;;5048629;28;20171;-68
2023/08/24 08:10:00;;;;;;;5.85;4.72;;;29.50;50.20;;;;;;5050266;28;20068;-68
2023/08/24 08:12:26;;;;;;;5.85;4.57;;;29.50;50.30;;;;;;5049896;28;20072;-69
2023/08/24 08:14:52;;;;;;;5.40;4.55;;;29.50;50.20;;;;;;5049999;28;20112;-67
2023/08/24 08:17:18;;;;;;;7.10;5.40;;;29.40;50.20;;;;;;5047695;28;20056;-68
2023/08/24 08:19:43;;;;;;;6.72;5.18;;;29.50;50.40;;;;;;5050233;28;20060;-67
2023/08/24 08:22:09;;;;;;;5.75;5.10;;;29.50;50.60;;;;;;5049934;28;20500;-69
2023/08/24 08:24:35;;;;;;;7.93;5.88;;;29.60;51.00;;;;;;5050216;28;20040;-69
2023/08/24 08:27:02;;;;;;;6.72;5.15;;;29.50;51.20;;;;;;5030882;28;20061;-69
2023/08/24 08:29:28;;;;;;;7.50;5.03;;;29.50;51.50;;;;;;5050913;28;20073;-69
2023/08/24 08:31:54;;;;;;;6.22;4.55;;;29.50;51.60;;;;;;5069882;28;20036;-69
2023/08/24 08:34:20;;;;;;;7.95;5.43;;;29.70;51.70;;;;;;5054340;28;20083;-68
2023/08/24 08:36:46;;;;;;;6.15;5.43;;;29.60;51.80;;;;;;5071154;28;20061;-69
2023/08/24 08:39:13;;;;;;;6.13;5.10;;;29.60;52.00;;;;;;5070948;28;20047;-67
2023/08/24 08:41:43;;;;;;;8.48;5.15;;;29.70;52.20;;;;;;5054366;28;20056;-69
2023/08/24 08:44:12;;;;;;;6.25;5.05;;;29.70;52.30;;;;;;5070946;28;20068;-68
2023/08/24 08:46:40;;;;;;;5.95;4.25;;;29.50;52.40;;;;;;5071021;28;20052;-68
2023/08/24 08:49:08;;;;;;;8.80;4.93;;;29.60;52.30;;;;;;5070805;28;20048;-69
2023/08/24 08:51:36;;;;;;;7.03;5.13;;;29.70;52.30;;;;;;5071087;28;20574;-70
2023/08/24 08:54:05;;;;;;;6.22;5.60;;;29.70;53.40;;;;;;5070800;28;20032;-70
2023/08/24 08:56:32;;;;;;;9.43;8.40;;;29.60;53.70;;;;;;5050929;28;20067;-68
2023/08/24 08:59:03;;;;;;;8.00;6.00;;;29.60;54.00;;;;;;5053034;28;20057;-68
2023/08/24 09:01:30;;;;;;;9.80;6.88;;;29.90;53.30;;;;;;5053296;28;20461;-68
2023/08/24 09:03:57;;;;;;;16.98;8.45;;;29.80;52.80;;;;;;5053360;28;20545;-69
2023/08/24 09:06:23;;;;;;;12.55;6.13;;;29.80;52.60;;;;;;5053197;28;20041;-68
2023/08/24 09:08:52;;;;;;;9.10;6.10;;;30.00;53.30;;;;;;5053233;28;20064;-70
2023/08/24 09:11:18;;;;;;;6.28;5.63;;;29.90;53.70;;;;;;5051540;28;20461;-70
2023/08/24 09:13:45;;;;;;;6.05;4.85;;;29.90;53.30;;;;;;5051407;28;20556;-69
2023/08/24 09:16:18;;;;;;;5.40;4.68;;;30.00;53.60;;;;;;5051656;28;20571;-69
2023/08/24 09:18:46;;;;;;;5.60;4.57;;;30.10;53.50;;;;;;5052931;28;20075;-70
2023/08/24 09:21:16;;;;;;;7.75;5.25;;;30.00;53.50;;;;;;5052854;28;20048;-70
2023/08/24 09:23:52;;;;;;;5.68;5.03;;;29.90;52.90;;;;;;5052710;28;20079;-70
2023/08/24 09:26:31;;;;;;;6.78;4.72;;;30.00;53.60;;;;;;5051441;28;20032;-69
2023/08/24 09:29:12;;;;;;;6.53;4.68;;;30.00;53.60;;;;;;5052858;28;20040;-70
2023/08/24 09:31:39;;;;;;;5.68;3.92;;;29.90;53.10;;;;;;5051563;28;20124;-69
2023/08/24 09:34:05;;;;;;;5.82;4.47;;;30.00;54.00;;;;;;5052474;28;20036;-70
2023/08/24 09:36:35;;;;;;;6.72;4.72;;;30.10;54.50;;;;;;5052111;28;20078;-71
2023/08/24 09:39:06;;;;;;;5.65;4.10;;;30.10;54.40;;;;;;5052478;28;20354;-69
2023/08/24 09:41:48;;;;;;;6.90;5.07;;;30.10;54.30;;;;;;5052512;28;20033;-69
2023/08/24 09:44:15;;;;;;;6.43;4.70;;;30.20;54.10;;;;;;5066741;28;20545;-70
2023/08/24 09:46:43;;;;;;;4.97;4.07;;;30.20;53.90;;;;;;5072066;28;20048;-69
2023/08/24 09:49:11;;;;;;;4.30;3.67;;;30.10;53.80;;;;;;5072371;28;20477;-68
2023/08/24 09:51:39;;;;;;;9.10;4.50;;;30.10;54.10;;;;;;5072220;28;20392;-69
2023/08/24 09:54:09;;;;;;;4.43;3.97;;;30.10;54.60;;;;;;5072317;28;20062;-68
2023/08/24 09:56:41;;;;;;;8.50;4.40;;;30.10;55.00;;;;;;5032141;28;20053;-68
2023/08/24 09:59:13;;;;;;;5.00;3.75;;;30.30;55.40;;;;;;5043619;28;20392;-71
2023/08/24 10:01:43;;;;;;;6.20;4.25;;;30.20;55.40;;;;;;5051075;28;20033;-70
2023/08/24 10:04:11;;;;;;;6.00;4.15;;;30.20;55.30;;;;;;5052032;28;20025;-71
2023/08/24 10:06:42;;;;;;;6.18;4.50;;;30.10;55.10;;;;;;5051985;28;20044;-69
2023/08/24 10:09:18;;;;;;;4.85;4.13;;;30.10;55.00;;;;;;5050816;28;20119;-71
2023/08/24 10:11:51;;;;;;;6.20;3.72;;;30.10;55.00;;;;;;5051909;28;20039;-69
2023/08/24 10:14:28;;;;;;;4.25;3.65;;;30.20;54.90;;;;;;5051828;28;20099;-69
2023/08/24 10:16:56;;;;;;;6.95;4.70;;;30.30;54.60;;;;;;5051752;28;20036;-69
2023/08/24 10:19:22;;;;;;;6.15;4.68;;;30.20;55.60;;;;;;5052147;28;20041;-70
2023/08/24 10:21:52;;;;;;;11.82;5.50;;;30.40;55.50;;;;;;5051796;28;20068;-70
2023/08/24 10:24:21;;;;;;;17.52;6.20;;;30.50;56.50;;;;;;5051350;28;20120;-70
2023/08/24 10:26:48;;;;;;;9.13;5.47;;;30.40;57.40;;;;;;5051413;28;20045;-71
2023/08/24 10:29:15;;;;;;;7.47;4.72;;;30.60;57.10;;;;;;5051160;28;20071;-69
2023/08/24 10:31:42;;;;;;;8.57;5.60;;;30.50;57.50;;;;;;5051523;28;20253;-70
2023/08/24 10:34:09;;;;;;;10.77;6.22;;;30.90;57.70;;;;;;5050085;28;20123;-71
2023/08/24 10:36:39;;;;;;;7.93;5.80;;;31.40;60.60;;;;;;5051456;28;20044;-71
2023/08/24 10:39:06;;;;;;;6.05;5.20;;;31.40;57.10;;;;;;5056675;28;20025;-70
2023/08/24 10:41:48;;;;;;;9.35;6.15;;;31.40;55.80;;;;;;5070356;28;20083;-71
2023/08/24 10:44:44;;;;;;;6.03;4.63;;;31.20;55.70;;;;;;5070974;28;20054;-71
2023/08/24 10:47:20;;;;;;;4.93;4.10;;;31.00;55.90;;;;;;5028369;28;20156;-72
2023/08/24 10:49:58;;;;;;;4.60;4.05;;;31.00;55.10;;;;;;5029034;28;20052;-71
2023/08/24 10:52:27;;;;;;;5.35;4.50;;;31.10;54.90;;;;;;5028925;28;20067;-70
2023/08/24 10:54:54;;;;;;;5.90;4.82;;;31.00;54.60;;;;;;5021620;28;20042;-70
2023/08/24 10:57:27;;;;;;;7.38;4.80;;;31.10;55.40;;;;;;4976263;28;20137;-69
2023/08/24 11:00:10;;;;;;;5.93;4.95;;;31.30;55.90;;;;;;5008974;28;20088;-70
2023/08/24 11:02:50;;;;;;;4.97;4.47;;;31.30;56.00;;;;;;5008915;28;20038;-72
2023/08/24 11:05:17;;;;;;;17.33;10.88;;;31.20;52.70;;;;;;4992567;28;20121;-72
2023/08/24 11:07:50;;;;;;;7.45;5.88;;;31.30;53.00;;;;;;5008873;28;20044;-72
2023/08/24 11:10:17;;;;;;;5.95;4.28;;;31.30;52.50;;;;;;5008935;28;20054;-73
2023/08/24 11:13:06;;;;;;;5.95;4.32;;;31.30;51.80;;;;;;4992489;28;20461;-72
2023/08/24 11:15:40;;;;;;;6.07;4.15;;;31.30;51.20;;;;;;5008653;28;20062;-72
2023/08/24 11:18:23;;;;;;;6.82;4.00;;;31.10;50.70;;;;;;5009077;28;20526;-73
2023/08/24 11:20:52;;;;;;;3.55;3.22;;;31.10;50.30;;;;;;5008850;28;20037;-73
2023/08/24 11:23:20;;;;;;;5.95;3.83;;;31.20;49.90;;;;;;5019116;28;20132;-72
2023/08/24 11:25:48;;;;;;;4.00;3.22;;;31.10;49.70;;;;;;5051037;28;20376;-75
2023/08/24 11:28:20;;;;;;;4.63;4.22;;;31.00;49.10;;;;;;5050995;28;20194;-73
2023/08/24 11:30:47;;;;;;;6.03;3.78;;;31.00;48.40;;;;;;5049546;28;20047;-73
2023/08/24 11:33:14;;;;;;;9.13;4.35;;;31.00;48.30;;;;;;5050679;28;20112;-73
2023/08/24 11:35:44;;;;;;;6.93;3.80;;;31.10;48.20;;;;;;5050518;28;20064;-74
2023/08/24 11:38:10;;;;;;;4.15;3.75;;;31.00;48.20;;;;;;5050771;28;20041;-74
2023/08/24 11:40:37;;;;;;;3.92;3.42;;;30.90;48.00;;;;;;5050771;28;20456;-73
2023/08/24 11:43:05;;;;;;;4.35;3.88;;;30.90;47.20;;;;;;5050414;28;20400;-74
2023/08/24 11:45:33;;;;;;;4.07;3.67;;;30.80;47.50;;;;;;5050359;28;20029;-73
2023/08/24 11:48:04;;;;;;;3.72;3.00;;;30.80;47.30;;;;;;5050570;28;20053;-74
2023/08/24 11:50:31;;;;;;;3.53;3.22;;;30.80;46.90;;;;;;5050169;28;20083;-72
2023/08/24 11:52:57;;;;;;;3.03;2.72;;;30.80;46.60;;;;;;5050351;28;20108;-73
2023/08/24 11:55:23;;;;;;;2.80;2.60;;;30.80;46.40;;;;;;5050198;28;20088;-74
2023/08/24 11:57:51;;;;;;;5.45;2.97;;;30.70;46.30;;;;;;5050513;28;20060;-73
2023/08/24 12:00:19;;;;;;;4.65;3.47;;;30.70;46.00;;;;;;5050443;28;20072;-72
2023/08/24 12:02:46;;;;;;;3.33;3.03;;;30.70;45.80;;;;;;5050366;28;20541;-73
2023/08/24 12:05:23;;;;;;;4.68;3.42;;;30.60;45.80;;;;;;5050367;28;20025;-72
2023/08/24 12:07:49;;;;;;;3.72;3.17;;;30.70;45.60;;;;;;5053648;28;20033;-72
2023/08/24 12:10:15;;;;;;;3.67;3.22;;;30.60;45.50;;;;;;5054280;28;20069;-74
2023/08/24 12:12:41;;;;;;;3.72;3.05;;;30.50;45.40;;;;;;5054114;28;20040;-73
2023/08/24 12:15:15;;;;;;;4.03;3.30;;;30.60;45.20;;;;;;5053634;28;20025;-73
2023/08/24 12:17:44;;;;;;;3.42;3.13;;;30.70;45.20;;;;;;5052934;28;20037;-73
2023/08/24 12:20:18;;;;;;;3.90;3.15;;;30.50;45.00;;;;;;5052643;28;20033;-73
2023/08/24 12:22:49;;;;;;;3.80;3.08;;;30.40;45.00;;;;;;5053609;28;20071;-72
2023/08/24 12:25:16;;;;;;;3.20;2.90;;;30.50;44.90;;;;;;5053506;28;20024;-71
2023/08/24 12:27:42;;;;;;;3.13;2.83;;;30.50;44.90;;;;;;5051363;28;20045;-71
2023/08/24 12:30:10;;;;;;;3.42;3.13;;;30.50;45.00;;;;;;5053568;28;20400;-71
2023/08/24 12:32:44;;;;;;;2.83;2.63;;;30.40;45.20;;;;;;5053368;28;20032;-72
2023/08/24 12:35:10;;;;;;;3.20;2.90;;;30.40;45.40;;;;;;5051851;28;20041;-72
2023/08/24 12:37:37;;;;;;;3.03;2.53;;;30.50;45.60;;;;;;5053442;28;20484;-72
2023/08/24 12:40:06;;;;;;;3.47;2.92;;;30.50;45.90;;;;;;5053573;28;20064;-72
2023/08/24 12:42:33;;;;;;;3.55;3.22;;;30.40;46.10;;;;;;5054219;28;20078;-73
2023/08/24 12:44:58;;;;;;;3.83;3.13;;;30.40;46.30;;;;;;5073054;28;20376;-69
2023/08/24 12:47:25;;;;;;;3.20;2.75;;;30.30;46.60;;;;;;5072227;28;20055;-70
2023/08/24 12:49:54;;;;;;;2.83;2.58;;;30.40;46.70;;;;;;5072301;28;20048;-71